Time;durP1;ratioP1;P1;durP2;ratioP2;P2;SDS_P1;SDS_P2;PMS_P1;PMS_P2;Temp;Humidity;BMP_temperature;BMP_pressure;BME280_temperature;BME280_humidity;BME280_pressure;Samples;Min_cycle;Max_cycle;Signal;HPM_P1;HPM_P2
2023/05/26 00:02:07;;;;;;;59.70;35.00;;;11.20;99.90;;;;;;5078915;28;20416;-80
2023/05/26 00:04:33;;;;;;;56.00;36.22;;;11.20;99.90;;;;;;5097110;28;20106;-80
2023/05/26 00:06:59;;;;;;;59.25;35.97;;;11.20;99.90;;;;;;5078633;28;20573;-79
2023/05/26 00:09:25;;;;;;;61.20;35.90;;;11.20;99.90;;;;;;5078940;28;20027;-80
2023/05/26 00:11:51;;;;;;;62.63;36.92;;;11.30;99.90;;;;;;5096902;28;20024;-80
2023/05/26 00:14:17;;;;;;;60.67;36.17;;;11.30;99.90;;;;;;5097033;28;20035;-79
2023/05/26 00:16:43;;;;;;;57.17;36.35;;;11.30;99.90;;;;;;5078717;28;20084;-81
2023/05/26 00:19:09;;;;;;;59.08;36.33;;;11.30;99.90;;;;;;5096895;28;20113;-80
2023/05/26 00:21:35;;;;;;;66.18;37.92;;;11.30;99.90;;;;;;5096644;28;20473;-80
2023/05/26 00:24:02;;;;;;;64.18;36.72;;;11.40;99.90;;;;;;5096733;28;20053;-80
2023/05/26 00:26:27;;;;;;;62.92;37.47;;;11.40;99.90;;;;;;5096767;28;20020;-79
2023/05/26 00:28:53;;;;;;;64.55;37.50;;;11.40;99.90;;;;;;5096602;28;20043;-79
2023/05/26 00:31:18;;;;;;;62.67;38.85;;;11.40;99.90;;;;;;5078428;28;20094;-79
2023/05/26 00:33:44;;;;;;;62.00;36.75;;;11.40;99.90;;;;;;5078462;28;20024;-79
2023/05/26 00:36:10;;;;;;;56.72;36.08;;;11.40;99.90;;;;;;5078603;28;20016;-81
2023/05/26 00:38:35;;;;;;;59.40;36.47;;;11.40;99.90;;;;;;5078371;28;20055;-81
2023/05/26 00:41:01;;;;;;;55.63;36.55;;;11.40;99.90;;;;;;5096468;28;20111;-80
2023/05/26 00:43:26;;;;;;;59.33;36.88;;;11.40;99.90;;;;;;5078222;28;20469;-81
2023/05/26 00:45:52;;;;;;;65.22;39.47;;;11.40;99.90;;;;;;5078454;28;20020;-80
2023/05/26 00:48:18;;;;;;;64.13;38.25;;;11.40;99.90;;;;;;5096228;28;20028;-82
2023/05/26 00:50:43;;;;;;;68.22;39.53;;;11.40;99.90;;;;;;5096130;28;20388;-80
2023/05/26 00:53:11;;;;;;;62.10;39.40;;;11.30;99.90;;;;;;5096161;28;20525;-81
2023/05/26 00:55:37;;;;;;;66.53;40.42;;;11.30;99.90;;;;;;5077973;28;20123;-81
2023/05/26 00:58:03;;;;;;;64.57;41.17;;;11.40;99.90;;;;;;5077833;28;20491;-79
2023/05/26 01:00:30;;;;;;;68.82;40.35;;;11.40;99.90;;;;;;5096092;28;20035;-81
2023/05/26 01:02:57;;;;;;;72.18;41.35;;;11.40;99.90;;;;;;5095598;28;20507;-80
2023/05/26 01:05:23;;;;;;;68.28;41.15;;;11.30;99.90;;;;;;5077679;28;20123;-80
2023/05/26 01:07:49;;;;;;;66.22;40.28;;;11.30;99.90;;;;;;5077514;28;20393;-80
2023/05/26 01:10:15;;;;;;;67.90;40.17;;;11.30;99.90;;;;;;5095226;28;20027;-80
2023/05/26 01:12:49;;;;;;;68.90;40.60;;;11.30;99.90;;;;;;5095797;28;20020;-81
2023/05/26 01:15:25;;;;;;;74.70;42.83;;;11.30;99.90;;;;;;5077613;28;20020;-80
2023/05/26 01:18:13;;;;;;;69.57;39.22;;;11.30;99.90;;;;;;5095722;28;20103;-81
2023/05/26 01:21:08;;;;;;;64.93;39.95;;;11.30;99.90;;;;;;5095643;28;20107;-80
2023/05/26 01:24:24;;;;;;;69.00;40.78;;;11.30;99.90;;;;;;5093432;28;20052;-80
2023/05/26 01:27:03;;;;;;;68.07;41.58;;;11.30;99.90;;;;;;5050599;28;20032;-82
2023/05/26 01:29:32;;;;;;;67.82;39.88;;;11.40;99.90;;;;;;5095633;28;20459;-79
2023/05/26 01:32:14;;;;;;;69.20;39.92;;;11.40;99.90;;;;;;5087243;28;20028;-80
2023/05/26 01:34:39;;;;;;;70.30;40.53;;;11.40;99.90;;;;;;5077266;28;20107;-79
2023/05/26 01:37:05;;;;;;;67.78;41.75;;;11.40;99.90;;;;;;5095270;28;20109;-81
2023/05/26 01:39:31;;;;;;;71.03;41.80;;;11.40;99.90;;;;;;5077244;28;20034;-81
2023/05/26 01:42:08;;;;;;;70.68;41.85;;;11.40;99.90;;;;;;5095104;28;20031;-79
2023/05/26 01:44:43;;;;;;;66.68;41.17;;;11.30;99.90;;;;;;5076979;28;20404;-80
2023/05/26 01:47:10;;;;;;;68.40;41.45;;;11.40;99.90;;;;;;5076882;28;20066;-80
2023/05/26 01:49:38;;;;;;;69.85;40.58;;;11.40;99.90;;;;;;5095142;28;20047;-80
2023/05/26 01:52:09;;;;;;;69.80;42.00;;;11.40;99.90;;;;;;5095034;28;20020;-80
2023/05/26 01:54:45;;;;;;;69.97;41.40;;;11.40;99.90;;;;;;5077028;28;20119;-80
2023/05/26 01:57:10;;;;;;;70.88;42.53;;;11.30;99.90;;;;;;5094885;28;20142;-81
2023/05/26 01:59:36;;;;;;;68.80;42.40;;;11.30;99.90;;;;;;5076848;28;20040;-80
2023/05/26 02:02:02;;;;;;;70.13;40.67;;;11.30;99.90;;;;;;5076635;28;20020;-80
2023/05/26 02:04:28;;;;;;;66.20;39.65;;;11.30;99.90;;;;;;5094761;28;20051;-81
2023/05/26 02:06:54;;;;;;;71.05;43.70;;;11.30;99.90;;;;;;5076466;28;20060;-80
2023/05/26 02:09:20;;;;;;;69.70;40.80;;;11.30;99.90;;;;;;5094967;28;20556;-81
2023/05/26 02:11:47;;;;;;;60.50;37.33;;;11.30;99.90;;;;;;5076399;28;20074;-81
2023/05/26 02:14:12;;;;;;;71.60;42.95;;;11.30;99.90;;;;;;5076458;28;20012;-80
2023/05/26 02:16:39;;;;;;;72.80;44.88;;;11.30;99.90;;;;;;5076425;28;20419;-80
2023/05/26 02:19:07;;;;;;;72.47;43.13;;;11.30;99.90;;;;;;5094534;28;20035;-80
2023/05/26 02:21:33;;;;;;;68.38;42.03;;;11.30;99.90;;;;;;5075368;28;20042;-80
2023/05/26 02:23:59;;;;;;;73.95;43.08;;;11.40;99.90;;;;;;5076194;28;20024;-80
2023/05/26 02:26:24;;;;;;;73.10;42.03;;;11.30;99.90;;;;;;5076196;28;20069;-80
2023/05/26 02:28:51;;;;;;;64.65;39.00;;;11.30;99.90;;;;;;5094602;28;20100;-80
2023/05/26 02:31:16;;;;;;;64.43;40.25;;;11.30;99.90;;;;;;5076011;28;20526;-82
2023/05/26 02:33:42;;;;;;;67.15;40.83;;;11.30;99.90;;;;;;5094457;28;20103;-79
2023/05/26 02:36:08;;;;;;;69.72;41.13;;;11.30;99.90;;;;;;5076186;28;20024;-81
2023/05/26 02:38:33;;;;;;;62.17;39.42;;;11.20;99.90;;;;;;5094154;28;20024;-79
2023/05/26 02:40:59;;;;;;;61.30;37.20;;;11.20;99.90;;;;;;5093999;28;20373;-82
2023/05/26 02:43:24;;;;;;;64.78;35.53;;;11.20;99.90;;;;;;5076054;28;20473;-79
2023/05/26 02:45:50;;;;;;;56.38;35.15;;;11.10;99.90;;;;;;5093932;28;20028;-80
2023/05/26 02:48:16;;;;;;;71.40;35.88;;;11.10;99.90;;;;;;5094130;28;20013;-80
2023/05/26 02:50:42;;;;;;;65.43;38.85;;;11.10;99.90;;;;;;5093963;28;20063;-79
2023/05/26 02:53:07;;;;;;;76.20;38.60;;;11.10;99.90;;;;;;5093971;28;20048;-80
2023/05/26 02:55:33;;;;;;;101.63;38.17;;;11.10;99.90;;;;;;5075556;28;20020;-81
2023/05/26 02:58:00;;;;;;;66.72;38.20;;;11.10;99.90;;;;;;5075693;28;20381;-80
2023/05/26 03:00:26;;;;;;;63.60;38.05;;;11.10;99.90;;;;;;5075526;28;20106;-81
2023/05/26 03:02:51;;;;;;;73.55;39.67;;;11.10;99.90;;;;;;5075519;28;20479;-80
2023/05/26 03:05:17;;;;;;;92.47;40.45;;;11.10;99.90;;;;;;5075545;28;20035;-79
2023/05/26 03:07:43;;;;;;;100.80;42.97;;;11.10;99.90;;;;;;5075445;28;20040;-81
2023/05/26 03:10:09;;;;;;;154.50;48.72;;;11.00;99.90;;;;;;5075595;28;20028;-82
2023/05/26 03:12:34;;;;;;;220.70;51.35;;;11.00;99.90;;;;;;5075566;28;20020;-81
2023/05/26 03:15:00;;;;;;;244.95;53.58;;;11.00;99.90;;;;;;5075469;28;20022;-79
2023/05/26 03:17:27;;;;;;;200.13;48.60;;;10.90;99.90;;;;;;5075340;28;20034;-80
2023/05/26 03:19:53;;;;;;;209.13;47.53;;;10.90;99.90;;;;;;5093483;28;20020;-79
2023/05/26 03:22:18;;;;;;;228.05;52.25;;;10.90;99.90;;;;;;5093550;28;20038;-80
2023/05/26 03:24:44;;;;;;;187.50;47.78;;;10.80;99.90;;;;;;5093438;28;20396;-79
2023/05/26 03:27:10;;;;;;;313.02;62.50;;;10.90;99.90;;;;;;5093516;28;20082;-81
2023/05/26 03:29:36;;;;;;;233.38;53.03;;;10.80;99.90;;;;;;5075428;28;20107;-80
2023/05/26 03:32:02;;;;;;;244.25;52.50;;;10.80;99.90;;;;;;5093107;28;20093;-80
2023/05/26 03:34:27;;;;;;;196.52;48.35;;;10.80;99.90;;;;;;5075264;28;20036;-80
2023/05/26 03:36:54;;;;;;;308.42;57.97;;;10.90;99.90;;;;;;5093203;28;20012;-79
2023/05/26 03:39:22;;;;;;;436.17;70.40;;;10.80;99.90;;;;;;5075126;28;20027;-79
2023/05/26 03:41:48;;;;;;;399.23;64.35;;;10.80;99.90;;;;;;5075061;28;20051;-79
2023/05/26 03:44:18;;;;;;;293.92;60.25;;;10.80;99.90;;;;;;5093423;28;20028;-80
2023/05/26 03:46:47;;;;;;;178.77;52.38;;;10.80;99.90;;;;;;5075112;28;20423;-79
2023/05/26 03:49:12;;;;;;;239.35;55.40;;;10.80;99.90;;;;;;5093224;28;20028;-80
2023/05/26 03:51:38;;;;;;;195.80;55.50;;;10.80;99.90;;;;;;5074957;28;20023;-79
2023/05/26 03:54:04;;;;;;;261.35;58.22;;;10.90;99.90;;;;;;5093091;28;20024;-80
2023/05/26 03:56:30;;;;;;;202.68;49.47;;;10.90;99.90;;;;;;5093139;28;20024;-80
2023/05/26 03:58:55;;;;;;;298.33;64.50;;;10.90;99.90;;;;;;5093175;28;20440;-79
2023/05/26 04:01:22;;;;;;;104.65;45.08;;;10.90;99.90;;;;;;5092997;28;20046;-80
2023/05/26 04:03:48;;;;;;;168.98;49.25;;;11.00;99.90;;;;;;5074947;28;20027;-80
2023/05/26 04:06:13;;;;;;;234.70;56.70;;;11.00;99.90;;;;;;5093122;28;20020;-80
2023/05/26 04:08:39;;;;;;;120.60;45.63;;;11.00;99.90;;;;;;5092876;28;20048;-80
2023/05/26 04:11:05;;;;;;;134.70;48.70;;;11.10;99.90;;;;;;5074982;28;20028;-79
2023/05/26 04:13:31;;;;;;;89.68;44.35;;;11.00;99.90;;;;;;5092972;28;20055;-79
2023/05/26 04:15:57;;;;;;;80.80;42.30;;;11.10;99.90;;;;;;5084715;28;20016;-80
2023/05/26 04:18:23;;;;;;;85.20;42.78;;;11.20;99.90;;;;;;5074886;28;20026;-80
2023/05/26 04:20:49;;;;;;;91.32;44.63;;;11.20;99.90;;;;;;5092875;28;20013;-81
2023/05/26 04:23:15;;;;;;;87.88;42.65;;;11.30;99.90;;;;;;5092346;28;20038;-79
2023/05/26 04:25:40;;;;;;;89.90;46.10;;;11.40;99.90;;;;;;5074666;28;20045;-80
2023/05/26 04:28:07;;;;;;;99.20;45.22;;;11.50;99.90;;;;;;5074841;28;20012;-80
2023/05/26 04:30:38;;;;;;;82.38;43.42;;;11.50;99.90;;;;;;5092799;28;20020;-80
2023/05/26 04:33:07;;;;;;;89.97;45.42;;;11.60;99.90;;;;;;5074643;28;20566;-80
2023/05/26 04:35:33;;;;;;;97.18;43.13;;;11.60;99.90;;;;;;5074647;28;20027;-80
2023/05/26 04:37:59;;;;;;;84.82;43.60;;;11.60;99.90;;;;;;5092673;28;20381;-80
2023/05/26 04:40:25;;;;;;;81.10;42.75;;;11.70;99.90;;;;;;5092642;28;20100;-80
2023/05/26 04:42:51;;;;;;;82.50;44.05;;;11.70;99.90;;;;;;5092664;28;20032;-80
2023/05/26 04:45:17;;;;;;;86.72;45.42;;;11.80;99.90;;;;;;5095279;28;20036;-80
2023/05/26 04:47:43;;;;;;;85.07;47.45;;;11.80;99.90;;;;;;5078150;28;20024;-80
2023/05/26 04:50:12;;;;;;;100.13;46.92;;;11.90;99.90;;;;;;5096305;28;20099;-80
2023/05/26 04:52:41;;;;;;;87.15;45.47;;;11.90;99.90;;;;;;5096258;28;20024;-79
2023/05/26 04:55:10;;;;;;;86.85;45.20;;;12.00;99.90;;;;;;5076523;28;20024;-80
2023/05/26 04:57:36;;;;;;;85.28;45.40;;;12.00;99.90;;;;;;5076822;28;20520;-80
2023/05/26 05:00:05;;;;;;;96.63;45.05;;;11.90;99.90;;;;;;5095695;28;20024;-79
2023/05/26 05:02:31;;;;;;;92.47;47.22;;;12.00;99.90;;;;;;5095995;28;20027;-79
2023/05/26 05:04:56;;;;;;;91.55;47.55;;;12.00;99.90;;;;;;5077836;28;20525;-81
2023/05/26 05:07:22;;;;;;;88.93;47.75;;;12.00;99.90;;;;;;5095816;28;20079;-80
2023/05/26 05:09:48;;;;;;;82.07;46.38;;;12.00;99.90;;;;;;5077736;28;20024;-80
2023/05/26 05:12:13;;;;;;;89.80;44.38;;;12.10;99.90;;;;;;5095991;28;20020;-81
2023/05/26 05:14:39;;;;;;;85.47;46.00;;;12.20;99.90;;;;;;5095271;28;20049;-79
2023/05/26 05:17:04;;;;;;;91.75;50.40;;;12.20;99.90;;;;;;5077240;28;20035;-80
2023/05/26 05:19:30;;;;;;;84.18;45.15;;;12.30;99.90;;;;;;5077512;28;20040;-80
2023/05/26 05:21:57;;;;;;;83.47;45.53;;;12.30;99.90;;;;;;5095294;28;20202;-81
2023/05/26 05:24:22;;;;;;;88.00;46.47;;;12.40;99.90;;;;;;5097154;28;20089;-80
2023/05/26 05:26:48;;;;;;;76.20;43.75;;;12.40;99.90;;;;;;5091882;28;20020;-80
2023/05/26 05:29:13;;;;;;;81.90;44.80;;;12.50;99.90;;;;;;5074385;28;20110;-79
2023/05/26 05:31:39;;;;;;;77.38;42.85;;;12.60;99.90;;;;;;5083705;28;20017;-79
2023/05/26 05:34:05;;;;;;;77.72;44.35;;;12.60;99.90;;;;;;5091442;28;20401;-80
2023/05/26 05:36:31;;;;;;;73.72;43.45;;;12.70;99.90;;;;;;5072036;28;20461;-80
2023/05/26 05:38:57;;;;;;;75.68;42.70;;;12.80;99.90;;;;;;5064151;28;20040;-80
2023/05/26 05:41:23;;;;;;;70.53;41.47;;;12.90;99.90;;;;;;5074311;28;20015;-79
2023/05/26 05:43:49;;;;;;;69.57;41.67;;;13.00;99.90;;;;;;5078654;28;20008;-80
2023/05/26 05:46:14;;;;;;;74.57;41.42;;;13.10;99.90;;;;;;5074415;28;20023;-80
2023/05/26 05:48:42;;;;;;;68.07;40.03;;;13.10;99.90;;;;;;5074503;28;20028;-80
2023/05/26 05:51:08;;;;;;;66.35;40.30;;;13.20;99.90;;;;;;5074690;28;20024;-80
2023/05/26 05:53:34;;;;;;;67.65;39.58;;;13.20;99.90;;;;;;5074635;28;20031;-80
2023/05/26 05:55:59;;;;;;;63.97;39.03;;;13.30;99.90;;;;;;5074975;28;20106;-80
2023/05/26 05:58:25;;;;;;;60.65;38.05;;;13.50;99.90;;;;;;5093764;28;20107;-80
2023/05/26 06:00:50;;;;;;;60.13;36.28;;;13.60;99.90;;;;;;5094284;28;20158;-80
2023/05/26 06:03:16;;;;;;;60.88;38.22;;;13.70;99.90;;;;;;5094555;28;20024;-79
2023/05/26 06:05:42;;;;;;;57.20;37.13;;;13.80;99.90;;;;;;5076286;28;20040;-80
2023/05/26 06:08:07;;;;;;;62.72;38.08;;;14.00;99.90;;;;;;5076276;28;20121;-80
2023/05/26 06:10:33;;;;;;;58.17;36.05;;;14.00;99.90;;;;;;5076328;28;20397;-80
2023/05/26 06:12:58;;;;;;;54.15;35.10;;;14.10;99.90;;;;;;5094458;28;20048;-80
2023/05/26 06:15:24;;;;;;;52.55;34.58;;;14.30;99.90;;;;;;5076202;28;20065;-80
2023/05/26 06:17:49;;;;;;;54.13;36.00;;;14.30;99.90;;;;;;5094279;28;20434;-80
2023/05/26 06:20:15;;;;;;;56.13;35.50;;;14.50;99.90;;;;;;5094469;28;20469;-79
2023/05/26 06:22:41;;;;;;;59.72;35.42;;;14.60;99.90;;;;;;5075997;28;20457;-80
2023/05/26 06:25:07;;;;;;;47.88;32.92;;;14.70;99.90;;;;;;5076017;28;20052;-80
2023/05/26 06:27:32;;;;;;;51.53;32.92;;;14.90;99.90;;;;;;5076075;28;20065;-79
2023/05/26 06:29:58;;;;;;;45.40;29.75;;;15.10;99.90;;;;;;5094252;28;20031;-79
2023/05/26 06:32:24;;;;;;;47.63;29.52;;;15.20;99.90;;;;;;5075895;28;20393;-80
2023/05/26 06:34:49;;;;;;;43.05;27.98;;;15.50;99.90;;;;;;5075986;28;20020;-80
2023/05/26 06:37:15;;;;;;;44.70;29.10;;;15.60;99.90;;;;;;5075900;28;20016;-80
2023/05/26 06:39:40;;;;;;;44.00;27.88;;;15.70;99.90;;;;;;5075875;28;20044;-80
2023/05/26 06:42:06;;;;;;;44.92;28.92;;;15.70;99.90;;;;;;5093884;28;20385;-80
2023/05/26 06:44:35;;;;;;;43.55;30.92;;;15.80;99.90;;;;;;5075673;28;20036;-79
2023/05/26 06:47:01;;;;;;;45.20;28.60;;;15.80;99.90;;;;;;5075902;28;20024;-80
2023/05/26 06:49:26;;;;;;;38.40;28.55;;;16.00;99.90;;;;;;5075864;28;20088;-80
2023/05/26 06:51:52;;;;;;;40.00;28.13;;;16.20;99.90;;;;;;5093825;28;20027;-80
2023/05/26 06:54:17;;;;;;;34.10;24.00;;;16.50;99.90;;;;;;5093972;28;20035;-81
2023/05/26 06:56:43;;;;;;;29.77;22.35;;;16.80;99.90;;;;;;5093879;28;20028;-80
2023/05/26 06:59:09;;;;;;;31.85;22.55;;;17.20;99.90;;;;;;5075827;28;20028;-80
2023/05/26 07:01:35;;;;;;;33.58;23.83;;;17.50;99.90;;;;;;5075565;28;20028;-80
2023/05/26 07:04:00;;;;;;;31.02;21.83;;;17.80;99.90;;;;;;5075609;28;20034;-80
2023/05/26 07:06:26;;;;;;;32.90;23.20;;;18.00;99.90;;;;;;5075142;28;20111;-80
2023/05/26 07:08:52;;;;;;;29.73;21.40;;;18.30;99.90;;;;;;5075305;28;20097;-79
2023/05/26 07:11:17;;;;;;;34.80;24.10;;;18.40;99.90;;;;;;5075172;28;20073;-80
2023/05/26 07:13:45;;;;;;;28.60;21.58;;;18.80;99.90;;;;;;5093411;28;20465;-80
2023/05/26 07:16:10;;;;;;;30.58;21.23;;;19.00;99.90;;;;;;5075356;28;20066;-80
2023/05/26 07:18:36;;;;;;;26.65;20.27;;;19.30;99.90;;;;;;5075357;28;20028;-79
2023/05/26 07:21:02;;;;;;;27.58;19.92;;;19.50;99.90;;;;;;5075487;28;20028;-80
2023/05/26 07:23:27;;;;;;;23.15;18.95;;;19.80;99.70;;;;;;5074702;28;20118;-80
2023/05/26 07:25:53;;;;;;;26.10;19.17;;;19.90;95.90;;;;;;5075045;28;20032;-80
2023/05/26 07:28:19;;;;;;;25.73;18.60;;;20.20;97.20;;;;;;5075016;28;20464;-80
2023/05/26 07:30:44;;;;;;;26.25;19.77;;;20.00;94.90;;;;;;5075031;28;20114;-80
2023/05/26 07:33:11;;;;;;;32.13;20.38;;;19.90;95.30;;;;;;5075052;28;20027;-77
2023/05/26 07:35:37;;;;;;;25.90;20.33;;;19.80;98.50;;;;;;5093161;28;20035;-77
2023/05/26 07:38:05;;;;;;;24.63;20.58;;;19.70;99.20;;;;;;5093213;28;20028;-76
2023/05/26 07:40:34;;;;;;;23.02;17.05;;;19.80;98.10;;;;;;5093335;28;20039;-77
2023/05/26 07:43:03;;;;;;;29.05;20.10;;;19.70;98.90;;;;;;5075051;28;20024;-76
2023/05/26 07:45:29;;;;;;;24.58;19.05;;;19.80;97.20;;;;;;5093118;28;20058;-79
2023/05/26 07:47:55;;;;;;;26.35;19.10;;;19.90;99.90;;;;;;5075134;28;20013;-79
2023/05/26 07:50:21;;;;;;;16.08;11.05;;;20.00;99.90;;;;;;5075181;28;20429;-76
2023/05/26 07:52:46;;;;;;;12.75;10.95;;;20.00;88.30;;;;;;5093119;28;20035;-80
2023/05/26 07:55:12;;;;;;;14.90;11.13;;;19.70;86.40;;;;;;5074894;28;20020;-76
2023/05/26 07:57:38;;;;;;;11.13;9.55;;;19.70;86.90;;;;;;5074907;28;20043;-77
2023/05/26 08:00:05;;;;;;;13.25;10.82;;;19.80;86.00;;;;;;5093044;28;20024;-80
2023/05/26 08:02:31;;;;;;;16.25;10.30;;;19.70;84.90;;;;;;5074821;28;20428;-80
2023/05/26 08:04:56;;;;;;;12.25;8.98;;;20.10;87.20;;;;;;5066569;28;20032;-81
2023/05/26 08:07:22;;;;;;;10.57;8.73;;;20.00;79.80;;;;;;5074419;28;20521;-80
2023/05/26 08:09:48;;;;;;;18.20;9.85;;;20.10;79.70;;;;;;5092887;28;20082;-80
2023/05/26 08:12:14;;;;;;;15.77;9.52;;;20.20;80.50;;;;;;5074726;28;20024;-80
2023/05/26 08:14:39;;;;;;;11.55;9.15;;;19.90;79.60;;;;;;5074721;28;20082;-80
2023/05/26 08:17:05;;;;;;;12.73;9.88;;;19.60;79.70;;;;;;5092715;28;20540;-80
2023/05/26 08:19:31;;;;;;;15.55;12.43;;;19.50;80.90;;;;;;5076239;28;20061;-80
2023/05/26 08:21:57;;;;;;;14.93;9.20;;;19.40;83.10;;;;;;5096853;28;20032;-80
2023/05/26 08:24:24;;;;;;;15.15;9.88;;;19.30;84.20;;;;;;5096511;28;20031;-80
2023/05/26 08:26:50;;;;;;;9.90;8.63;;;19.30;84.70;;;;;;5078346;28;20051;-80
2023/05/26 08:29:16;;;;;;;10.48;8.88;;;19.00;85.20;;;;;;5096663;28;20021;-77
2023/05/26 08:31:41;;;;;;;14.68;10.23;;;18.90;86.70;;;;;;5078337;28;20020;-77
2023/05/26 08:34:08;;;;;;;11.75;9.57;;;18.80;90.60;;;;;;5078398;28;20051;-77
2023/05/26 08:36:33;;;;;;;11.23;9.95;;;18.70;92.60;;;;;;5078282;28;20028;-79
2023/05/26 08:38:59;;;;;;;14.43;11.25;;;18.60;95.30;;;;;;5096384;28;20504;-79
2023/05/26 08:41:32;;;;;;;15.55;9.75;;;18.40;97.00;;;;;;5078128;28;20016;-79
2023/05/26 08:44:01;;;;;;;15.40;10.38;;;18.40;96.40;;;;;;5078117;28;20031;-79
2023/05/26 08:46:26;;;;;;;14.23;9.75;;;18.40;97.20;;;;;;5096381;28;20059;-78
2023/05/26 08:48:53;;;;;;;10.45;9.02;;;18.40;93.50;;;;;;5096171;28;20474;-78
2023/05/26 08:51:19;;;;;;;14.27;9.93;;;18.40;95.70;;;;;;5096280;28;20020;-79
2023/05/26 08:53:47;;;;;;;16.38;9.77;;;18.50;90.50;;;;;;5096327;28;20024;-79
2023/05/26 08:56:13;;;;;;;12.40;8.98;;;18.50;91.60;;;;;;5078106;28;20110;-79
2023/05/26 08:58:39;;;;;;;11.23;7.97;;;18.70;89.00;;;;;;5059166;28;20481;-79
2023/05/26 09:01:05;;;;;;;11.73;8.40;;;18.70;85.70;;;;;;5074728;28;20045;-79
2023/05/26 09:03:31;;;;;;;14.60;8.13;;;18.80;84.90;;;;;;5074773;28;20075;-79
2023/05/26 09:05:57;;;;;;;9.40;7.68;;;18.90;84.10;;;;;;5074988;28;20064;-79
2023/05/26 09:08:23;;;;;;;10.27;7.65;;;19.30;82.40;;;;;;5074159;28;20099;-79
2023/05/26 09:10:48;;;;;;;6.25;5.18;;;19.50;78.10;;;;;;5056731;28;20369;-79
2023/05/26 09:13:17;;;;;;;8.95;5.80;;;19.40;68.40;;;;;;5056359;28;20032;-79
2023/05/26 09:15:43;;;;;;;7.75;6.47;;;19.40;67.50;;;;;;5065625;28;20047;-79
2023/05/26 09:18:10;;;;;;;9.48;6.07;;;19.40;70.50;;;;;;5094449;28;20039;-78
2023/05/26 09:20:48;;;;;;;8.63;6.13;;;19.30;68.80;;;;;;5077028;28;20072;-80
2023/05/26 09:23:15;;;;;;;7.97;6.57;;;19.20;67.50;;;;;;5076135;28;20052;-80
2023/05/26 09:25:43;;;;;;;7.72;5.68;;;19.20;71.60;;;;;;5076176;28;20032;-79
2023/05/26 09:28:11;;;;;;;8.90;5.90;;;19.20;71.50;;;;;;5076154;28;20181;-79
2023/05/26 09:30:42;;;;;;;9.10;6.07;;;19.20;71.50;;;;;;5076363;28;20359;-80
2023/05/26 09:33:10;;;;;;;6.75;5.85;;;19.20;71.20;;;;;;5076241;28;20039;-79
2023/05/26 09:35:41;;;;;;;8.93;6.15;;;19.00;71.30;;;;;;5076614;28;20031;-80
2023/05/26 09:38:12;;;;;;;11.60;6.10;;;19.20;72.40;;;;;;5075908;28;20055;-78
2023/05/26 09:40:41;;;;;;;7.22;5.50;;;19.20;70.10;;;;;;5094180;28;20104;-79
2023/05/26 09:43:07;;;;;;;10.73;6.22;;;19.40;68.90;;;;;;5094115;28;20039;-79
2023/05/26 09:45:35;;;;;;;7.95;6.13;;;19.30;69.60;;;;;;5094293;28;20029;-80
2023/05/26 09:48:02;;;;;;;8.20;6.90;;;19.30;70.60;;;;;;5094090;28;20138;-80
2023/05/26 09:50:33;;;;;;;7.35;6.13;;;19.40;70.50;;;;;;5094280;28;20043;-80
2023/05/26 09:53:03;;;;;;;8.30;6.63;;;19.50;69.50;;;;;;5075943;28;20485;-81
2023/05/26 09:55:30;;;;;;;9.95;7.10;;;19.70;69.30;;;;;;5093666;28;20024;-80
2023/05/26 09:58:02;;;;;;;10.63;7.03;;;19.80;67.90;;;;;;5076009;28;20036;-81
2023/05/26 10:00:28;;;;;;;;;;;19.70;68.50;;;;;;5076372;28;20081;-80
2023/05/26 10:02:54;;;;;;;11.68;8.20;;;19.70;70.70;;;;;;5065702;28;19909;-81
2023/05/26 10:05:21;;;;;;;10.52;7.88;;;19.60;71.30;;;;;;5072918;28;20044;-80
2023/05/26 10:07:47;;;;;;;11.35;7.68;;;19.80;71.60;;;;;;5094678;28;20440;-80
2023/05/26 10:10:14;;;;;;;11.88;7.97;;;19.70;71.80;;;;;;5076708;28;20030;-81
2023/05/26 10:12:41;;;;;;;10.13;6.78;;;19.50;70.60;;;;;;5076498;28;20020;-80
2023/05/26 10:15:07;;;;;;;9.32;7.88;;;19.70;70.10;;;;;;5076643;28;20075;-80
2023/05/26 10:17:33;;;;;;;10.35;7.10;;;19.60;70.00;;;;;;5076337;28;20028;-81
2023/05/26 10:20:00;;;;;;;8.65;7.40;;;19.70;70.50;;;;;;5094314;28;20027;-81
2023/05/26 10:22:51;;;;;;;7.85;7.05;;;19.90;69.60;;;;;;5076042;28;20024;-81
2023/05/26 10:25:16;;;;;;;8.88;7.57;;;20.00;68.20;;;;;;5075989;28;20036;-81
2023/05/26 10:28:00;;;;;;;7.47;6.70;;;20.00;67.80;;;;;;5075895;28;20023;-81
2023/05/26 10:30:27;;;;;;;8.63;7.22;;;20.20;67.50;;;;;;5094124;28;20095;-82
2023/05/26 10:32:56;;;;;;;9.77;7.43;;;20.30;65.60;;;;;;5093944;28;20408;-81
2023/05/26 10:35:31;;;;;;;8.15;7.20;;;20.30;65.20;;;;;;5075976;28;20508;-81
2023/05/26 10:38:13;;;;;;;8.40;6.55;;;20.50;65.40;;;;;;5075911;28;20028;-81
2023/05/26 10:40:43;;;;;;;8.95;7.60;;;20.70;65.30;;;;;;5075776;28;20437;-80
2023/05/26 10:43:22;;;;;;;12.70;7.90;;;20.50;66.70;;;;;;5093237;28;20016;-80
2023/05/26 10:45:57;;;;;;;8.65;7.15;;;20.80;67.80;;;;;;5075697;28;20036;-80
2023/05/26 10:48:38;;;;;;;9.15;7.68;;;20.70;66.10;;;;;;5075738;28;20485;-80
2023/05/26 10:51:15;;;;;;;7.93;6.78;;;20.70;67.40;;;;;;5093897;28;20020;-79
2023/05/26 10:53:45;;;;;;;12.65;8.57;;;20.80;66.30;;;;;;5075279;28;20376;-81
2023/05/26 10:56:13;;;;;;;16.13;8.57;;;20.50;66.10;;;;;;5063378;28;20146;-81
2023/05/26 10:58:41;;;;;;;11.02;8.55;;;20.00;68.10;;;;;;5059130;28;20070;-81
2023/05/26 11:01:20;;;;;;;17.63;9.77;;;19.80;69.70;;;;;;5089114;28;20609;-81
2023/05/26 11:04:15;;;;;;;9.65;8.23;;;19.80;70.40;;;;;;5065710;28;20112;-82
2023/05/26 11:06:59;;;;;;;14.07;8.88;;;19.60;70.80;;;;;;5092373;28;20051;-80
2023/05/26 11:09:28;;;;;;;12.35;9.95;;;19.40;72.50;;;;;;5082941;28;20043;-79
2023/05/26 11:11:58;;;;;;;10.60;9.50;;;19.40;72.50;;;;;;5081633;28;20032;-79
2023/05/26 11:14:33;;;;;;;14.43;9.65;;;19.60;73.80;;;;;;5064637;28;20020;-81
2023/05/26 11:17:04;;;;;;;14.65;9.43;;;19.70;74.50;;;;;;5081778;28;20119;-81
2023/05/26 11:19:33;;;;;;;11.90;9.73;;;19.50;72.50;;;;;;5082337;28;20054;-81
2023/05/26 11:22:08;;;;;;;13.18;9.80;;;19.40;72.00;;;;;;5081875;28;20052;-81
2023/05/26 11:24:33;;;;;;;11.38;8.85;;;19.30;71.20;;;;;;5063367;28;20501;-82
2023/05/26 11:27:03;;;;;;;9.20;7.05;;;19.40;70.30;;;;;;5092965;28;20028;-83
2023/05/26 11:29:30;;;;;;;8.68;6.90;;;19.30;71.40;;;;;;5075072;28;20024;-82
2023/05/26 11:31:56;;;;;;;14.90;7.30;;;19.50;70.80;;;;;;5092478;28;20020;-83
2023/05/26 11:34:22;;;;;;;7.03;6.22;;;19.60;70.00;;;;;;5076082;28;20025;-82
2023/05/26 11:36:49;;;;;;;8.52;6.32;;;19.50;69.10;;;;;;5077547;28;20019;-82
2023/05/26 11:39:16;;;;;;;6.50;5.70;;;19.60;68.00;;;;;;5083602;28;20029;-82
2023/05/26 11:41:42;;;;;;;11.73;5.38;;;19.60;67.30;;;;;;5077326;28;20021;-83
2023/05/26 11:44:09;;;;;;;7.53;4.85;;;19.40;65.10;;;;;;5075510;28;20073;-83
2023/05/26 11:46:37;;;;;;;7.03;4.97;;;19.30;64.70;;;;;;5077051;28;20017;-82
2023/05/26 11:49:03;;;;;;;8.50;5.07;;;19.10;65.30;;;;;;5079780;28;20173;-82
2023/05/26 11:51:31;;;;;;;7.93;4.97;;;19.20;66.40;;;;;;5091031;28;20176;-82
2023/05/26 11:53:59;;;;;;;7.90;5.57;;;19.40;65.60;;;;;;5097637;28;20030;-82
2023/05/26 11:56:33;;;;;;;8.40;5.43;;;19.50;66.20;;;;;;5099201;28;20030;-81
2023/05/26 11:59:00;;;;;;;5.43;4.93;;;19.70;65.70;;;;;;5112358;28;20024;-82
2023/05/26 12:01:29;;;;;;;7.35;4.75;;;19.60;62.80;;;;;;5076984;28;20020;-82
2023/05/26 12:03:56;;;;;;;5.65;5.13;;;19.90;64.30;;;;;;5077739;28;20024;-83
2023/05/26 12:06:23;;;;;;;5.82;4.88;;;20.20;64.20;;;;;;5078627;28;20106;-82
2023/05/26 12:08:53;;;;;;;13.95;4.80;;;20.10;63.30;;;;;;5097110;28;20056;-82
2023/05/26 12:11:20;;;;;;;9.00;5.47;;;20.20;64.40;;;;;;5101138;28;20097;-81
2023/05/26 12:13:47;;;;;;;9.80;5.43;;;20.20;63.70;;;;;;5110697;28;20023;-80
2023/05/26 12:16:25;;;;;;;9.48;5.70;;;20.00;62.20;;;;;;5098938;28;20024;-80
2023/05/26 12:18:55;;;;;;;7.47;5.20;;;20.00;63.20;;;;;;5110143;28;20063;-81
2023/05/26 12:21:22;;;;;;;9.63;5.22;;;19.90;63.50;;;;;;5096974;28;20024;-80
2023/05/26 12:23:48;;;;;;;8.80;5.30;;;20.00;64.50;;;;;;5097461;28;20108;-80
2023/05/26 12:26:17;;;;;;;9.90;5.40;;;19.90;63.90;;;;;;5108033;28;20074;-80
2023/05/26 12:28:43;;;;;;;10.80;4.97;;;20.20;64.10;;;;;;5098966;28;20050;-80
2023/05/26 12:31:10;;;;;;;6.22;5.45;;;20.20;63.00;;;;;;5084252;28;20020;-81
2023/05/26 12:33:36;;;;;;;8.20;5.88;;;20.30;63.80;;;;;;5080183;28;20039;-80